sensor_id;sensor_type;location;lat;lon;timestamp;P1;durP1;ratioP1;P2;durP2;ratioP2
47251;SDS011;32991;51.374;11.586;2023-08-21T00:01:27;16.02;;;13.10;;
47251;SDS011;32991;51.374;11.586;2023-08-21T00:03:54;14.52;;;12.93;;
47251;SDS011;32991;51.374;11.586;2023-08-21T00:06:21;15.02;;;12.88;;
47251;SDS011;32991;51.374;11.586;2023-08-21T00:08:47;21.02;;;13.32;;
47251;SDS011;32991;51.374;11.586;2023-08-21T00:11:14;17.80;;;13.23;;
47251;SDS011;32991;51.374;11.586;2023-08-21T00:13:40;15.82;;;12.20;;
47251;SDS011;32991;51.374;11.586;2023-08-21T00:16:10;18.13;;;12.90;;
47251;SDS011;32991;51.374;11.586;2023-08-21T00:18:37;17.15;;;13.40;;
47251;SDS011;32991;51.374;11.586;2023-08-21T00:21:04;15.07;;;12.00;;
47251;SDS011;32991;51.374;11.586;2023-08-21T00:23:30;16.98;;;13.40;;
47251;SDS011;32991;51.374;11.586;2023-08-21T00:25:57;18.45;;;13.93;;
47251;SDS011;32991;51.374;11.586;2023-08-21T00:28:24;18.92;;;13.40;;
47251;SDS011;32991;51.374;11.586;2023-08-21T00:30:51;18.58;;;13.73;;
47251;SDS011;32991;51.374;11.586;2023-08-21T00:33:18;17.27;;;13.80;;
47251;SDS011;32991;51.374;11.586;2023-08-21T00:35:44;14.68;;;12.60;;
47251;SDS011;32991;51.374;11.586;2023-08-21T00:38:11;18.73;;;12.63;;
47251;SDS011;32991;51.374;11.586;2023-08-21T00:40:38;15.55;;;12.93;;
47251;SDS011;32991;51.374;11.586;2023-08-21T00:43:04;15.93;;;12.55;;
47251;SDS011;32991;51.374;11.586;2023-08-21T00:45:31;17.38;;;13.05;;
47251;SDS011;32991;51.374;11.586;2023-08-21T00:47:58;13.85;;;12.45;;
47251;SDS011;32991;51.374;11.586;2023-08-21T00:50:25;14.05;;;12.25;;
47251;SDS011;32991;51.374;11.586;2023-08-21T00:52:52;17.85;;;13.48;;
47251;SDS011;32991;51.374;11.586;2023-08-21T00:55:18;15.95;;;12.88;;
47251;SDS011;32991;51.374;11.586;2023-08-21T00:57:45;13.68;;;12.30;;
47251;SDS011;32991;51.374;11.586;2023-08-21T01:00:12;15.73;;;12.43;;
47251;SDS011;32991;51.374;11.586;2023-08-21T01:02:39;14.43;;;12.20;;
47251;SDS011;32991;51.374;11.586;2023-08-21T01:05:10;14.02;;;11.80;;
47251;SDS011;32991;51.374;11.586;2023-08-21T01:07:38;15.63;;;12.35;;
47251;SDS011;32991;51.374;11.586;2023-08-21T01:10:14;13.85;;;11.38;;
47251;SDS011;32991;51.374;11.586;2023-08-21T01:15:50;12.43;;;10.95;;
47251;SDS011;32991;51.374;11.586;2023-08-21T01:18:17;13.27;;;11.18;;
47251;SDS011;32991;51.374;11.586;2023-08-21T01:20:44;13.70;;;11.00;;
47251;SDS011;32991;51.374;11.586;2023-08-21T01:23:25;14.10;;;10.27;;
47251;SDS011;32991;51.374;11.586;2023-08-21T01:25:54;12.70;;;10.02;;
47251;SDS011;32991;51.374;11.586;2023-08-21T01:28:21;12.02;;;9.77;;
47251;SDS011;32991;51.374;11.586;2023-08-21T01:30:48;13.40;;;10.70;;
47251;SDS011;32991;51.374;11.586;2023-08-21T01:33:17;13.80;;;11.13;;
47251;SDS011;32991;51.374;11.586;2023-08-21T01:35:44;12.13;;;10.98;;
47251;SDS011;32991;51.374;11.586;2023-08-21T01:38:10;18.70;;;12.45;;
47251;SDS011;32991;51.374;11.586;2023-08-21T01:40:37;15.13;;;11.73;;
47251;SDS011;32991;51.374;11.586;2023-08-21T01:43:04;11.95;;;10.82;;
47251;SDS011;32991;51.374;11.586;2023-08-21T01:45:31;13.05;;;11.20;;
47251;SDS011;32991;51.374;11.586;2023-08-21T01:47:57;12.82;;;10.70;;
47251;SDS011;32991;51.374;11.586;2023-08-21T01:50:24;17.83;;;10.70;;
47251;SDS011;32991;51.374;11.586;2023-08-21T01:52:50;12.35;;;10.07;;
47251;SDS011;32991;51.374;11.586;2023-08-21T01:55:17;15.73;;;9.68;;
47251;SDS011;32991;51.374;11.586;2023-08-21T01:57:44;11.10;;;9.45;;
47251;SDS011;32991;51.374;11.586;2023-08-21T02:00:11;12.00;;;9.55;;
47251;SDS011;32991;51.374;11.586;2023-08-21T02:02:43;13.40;;;8.88;;
47251;SDS011;32991;51.374;11.586;2023-08-21T02:05:09;11.52;;;8.60;;
47251;SDS011;32991;51.374;11.586;2023-08-21T02:07:37;13.52;;;8.55;;
47251;SDS011;32991;51.374;11.586;2023-08-21T02:10:04;14.85;;;9.05;;
47251;SDS011;32991;51.374;11.586;2023-08-21T02:12:32;19.20;;;9.27;;
47251;SDS011;32991;51.374;11.586;2023-08-21T02:15:01;12.23;;;7.82;;
47251;SDS011;32991;51.374;11.586;2023-08-21T02:19:58;15.40;;;8.23;;
47251;SDS011;32991;51.374;11.586;2023-08-21T02:22:25;10.02;;;7.53;;
47251;SDS011;32991;51.374;11.586;2023-08-21T02:24:51;10.57;;;7.45;;
47251;SDS011;32991;51.374;11.586;2023-08-21T02:27:18;9.00;;;8.02;;
47251;SDS011;32991;51.374;11.586;2023-08-21T02:29:46;17.80;;;8.50;;
47251;SDS011;32991;51.374;11.586;2023-08-21T02:32:12;13.48;;;8.48;;
47251;SDS011;32991;51.374;11.586;2023-08-21T02:34:39;21.20;;;8.38;;
47251;SDS011;32991;51.374;11.586;2023-08-21T02:37:06;10.93;;;7.78;;
47251;SDS011;32991;51.374;11.586;2023-08-21T02:39:33;12.70;;;7.40;;
47251;SDS011;32991;51.374;11.586;2023-08-21T02:41:59;18.90;;;8.75;;
47251;SDS011;32991;51.374;11.586;2023-08-21T02:44:26;12.13;;;7.47;;
47251;SDS011;32991;51.374;11.586;2023-08-21T02:46:52;11.60;;;7.45;;
47251;SDS011;32991;51.374;11.586;2023-08-21T02:49:19;9.57;;;7.13;;
47251;SDS011;32991;51.374;11.586;2023-08-21T02:51:45;9.20;;;6.93;;
47251;SDS011;32991;51.374;11.586;2023-08-21T02:54:12;12.90;;;6.90;;
47251;SDS011;32991;51.374;11.586;2023-08-21T02:56:39;13.10;;;7.20;;
47251;SDS011;32991;51.374;11.586;2023-08-21T02:59:05;9.60;;;6.97;;
47251;SDS011;32991;51.374;11.586;2023-08-21T03:01:32;16.02;;;7.93;;
47251;SDS011;32991;51.374;11.586;2023-08-21T03:03:58;11.98;;;7.95;;
47251;SDS011;32991;51.374;11.586;2023-08-21T03:06:25;11.15;;;7.70;;
47251;SDS011;32991;51.374;11.586;2023-08-21T03:08:53;14.50;;;7.82;;
47251;SDS011;32991;51.374;11.586;2023-08-21T03:11:20;13.75;;;8.25;;
47251;SDS011;32991;51.374;11.586;2023-08-21T03:13:46;15.23;;;7.97;;
47251;SDS011;32991;51.374;11.586;2023-08-21T03:16:13;13.75;;;7.60;;
47251;SDS011;32991;51.374;11.586;2023-08-21T03:19:13;11.57;;;8.00;;
47251;SDS011;32991;51.374;11.586;2023-08-21T03:24:00;20.35;;;9.00;;
47251;SDS011;32991;51.374;11.586;2023-08-21T03:26:31;15.50;;;8.35;;
47251;SDS011;32991;51.374;11.586;2023-08-21T03:28:57;19.48;;;8.18;;
47251;SDS011;32991;51.374;11.586;2023-08-21T03:31:24;19.77;;;8.23;;
47251;SDS011;32991;51.374;11.586;2023-08-21T03:33:50;14.38;;;7.88;;
47251;SDS011;32991;51.374;11.586;2023-08-21T03:36:19;17.02;;;9.05;;
47251;SDS011;32991;51.374;11.586;2023-08-21T03:38:46;12.10;;;8.48;;
47251;SDS011;32991;51.374;11.586;2023-08-21T03:41:13;17.70;;;9.13;;
47251;SDS011;32991;51.374;11.586;2023-08-21T03:43:40;12.80;;;8.20;;
47251;SDS011;32991;51.374;11.586;2023-08-21T03:46:07;14.55;;;7.90;;
47251;SDS011;32991;51.374;11.586;2023-08-21T03:48:34;10.13;;;7.00;;
47251;SDS011;32991;51.374;11.586;2023-08-21T03:51:00;8.57;;;6.23;;
47251;SDS011;32991;51.374;11.586;2023-08-21T03:53:27;8.60;;;6.43;;
47251;SDS011;32991;51.374;11.586;2023-08-21T03:55:54;9.80;;;6.10;;
47251;SDS011;32991;51.374;11.586;2023-08-21T03:58:20;7.95;;;6.03;;
47251;SDS011;32991;51.374;11.586;2023-08-21T04:00:47;9.38;;;6.80;;
47251;SDS011;32991;51.374;11.586;2023-08-21T04:03:14;10.00;;;6.95;;
47251;SDS011;32991;51.374;11.586;2023-08-21T04:05:40;10.70;;;7.20;;
47251;SDS011;32991;51.374;11.586;2023-08-21T04:08:09;8.82;;;7.35;;
47251;SDS011;32991;51.374;11.586;2023-08-21T04:10:35;9.45;;;7.10;;
47251;SDS011;32991;51.374;11.586;2023-08-21T04:13:02;7.95;;;6.90;;
47251;SDS011;32991;51.374;11.586;2023-08-21T04:15:29;9.50;;;7.13;;
47251;SDS011;32991;51.374;11.586;2023-08-21T04:17:56;10.52;;;7.03;;
47251;SDS011;32991;51.374;11.586;2023-08-21T04:20:23;7.95;;;5.93;;
47251;SDS011;32991;51.374;11.586;2023-08-21T04:22:49;8.38;;;6.03;;
47251;SDS011;32991;51.374;11.586;2023-08-21T04:25:16;9.83;;;5.97;;
47251;SDS011;32991;51.374;11.586;2023-08-21T04:27:43;11.07;;;6.13;;
47251;SDS011;32991;51.374;11.586;2023-08-21T04:30:10;11.00;;;5.82;;
47251;SDS011;32991;51.374;11.586;2023-08-21T04:32:37;10.32;;;6.05;;
47251;SDS011;32991;51.374;11.586;2023-08-21T04:35:07;11.57;;;5.93;;
47251;SDS011;32991;51.374;11.586;2023-08-21T04:37:37;9.90;;;5.40;;
47251;SDS011;32991;51.374;11.586;2023-08-21T04:40:05;9.43;;;5.32;;
47251;SDS011;32991;51.374;11.586;2023-08-21T04:42:32;8.45;;;5.28;;
47251;SDS011;32991;51.374;11.586;2023-08-21T04:44:59;7.60;;;5.30;;
47251;SDS011;32991;51.374;11.586;2023-08-21T04:47:26;7.07;;;4.90;;
47251;SDS011;32991;51.374;11.586;2023-08-21T04:49:57;8.27;;;5.15;;
47251;SDS011;32991;51.374;11.586;2023-08-21T04:52:25;8.05;;;4.95;;
47251;SDS011;32991;51.374;11.586;2023-08-21T04:54:53;8.63;;;4.88;;
47251;SDS011;32991;51.374;11.586;2023-08-21T04:57:20;10.38;;;4.82;;
47251;SDS011;32991;51.374;11.586;2023-08-21T04:59:50;8.93;;;5.00;;
47251;SDS011;32991;51.374;11.586;2023-08-21T05:02:18;10.25;;;4.93;;
47251;SDS011;32991;51.374;11.586;2023-08-21T05:04:44;11.60;;;5.13;;
47251;SDS011;32991;51.374;11.586;2023-08-21T05:07:12;8.75;;;4.53;;
47251;SDS011;32991;51.374;11.586;2023-08-21T05:09:39;11.35;;;4.60;;
47251;SDS011;32991;51.374;11.586;2023-08-21T05:12:08;11.10;;;4.60;;
47251;SDS011;32991;51.374;11.586;2023-08-21T05:14:34;9.13;;;4.57;;
47251;SDS011;32991;51.374;11.586;2023-08-21T05:17:01;7.45;;;4.32;;
47251;SDS011;32991;51.374;11.586;2023-08-21T05:19:28;10.95;;;4.35;;
47251;SDS011;32991;51.374;11.586;2023-08-21T05:21:55;8.73;;;4.13;;
47251;SDS011;32991;51.374;11.586;2023-08-21T05:24:23;7.93;;;3.85;;
47251;SDS011;32991;51.374;11.586;2023-08-21T05:26:57;7.18;;;3.70;;
47251;SDS011;32991;51.374;11.586;2023-08-21T05:29:26;9.73;;;4.70;;
47251;SDS011;32991;51.374;11.586;2023-08-21T05:31:53;11.02;;;4.07;;
47251;SDS011;32991;51.374;11.586;2023-08-21T05:34:19;7.45;;;3.90;;
47251;SDS011;32991;51.374;11.586;2023-08-21T05:36:46;8.32;;;4.22;;
47251;SDS011;32991;51.374;11.586;2023-08-21T05:39:13;7.18;;;3.95;;
47251;SDS011;32991;51.374;11.586;2023-08-21T05:41:40;8.57;;;4.03;;
47251;SDS011;32991;51.374;11.586;2023-08-21T05:44:06;8.38;;;4.35;;
47251;SDS011;32991;51.374;11.586;2023-08-21T05:46:33;10.13;;;4.22;;
47251;SDS011;32991;51.374;11.586;2023-08-21T05:49:00;10.20;;;4.78;;
47251;SDS011;32991;51.374;11.586;2023-08-21T05:51:28;8.75;;;4.60;;
47251;SDS011;32991;51.374;11.586;2023-08-21T05:53:56;8.88;;;4.50;;
47251;SDS011;32991;51.374;11.586;2023-08-21T05:56:23;8.48;;;4.30;;
47251;SDS011;32991;51.374;11.586;2023-08-21T05:58:51;10.90;;;4.40;;
47251;SDS011;32991;51.374;11.586;2023-08-21T06:01:18;13.75;;;4.57;;
47251;SDS011;32991;51.374;11.586;2023-08-21T06:03:45;8.60;;;4.50;;
47251;SDS011;32991;51.374;11.586;2023-08-21T06:06:34;15.38;;;5.13;;
47251;SDS011;32991;51.374;11.586;2023-08-21T06:09:00;9.85;;;4.68;;
47251;SDS011;32991;51.374;11.586;2023-08-21T06:11:27;9.38;;;4.60;;
47251;SDS011;32991;51.374;11.586;2023-08-21T06:13:54;8.40;;;4.47;;
47251;SDS011;32991;51.374;11.586;2023-08-21T07:22:30;13.75;;;6.85;;
47251;SDS011;32991;51.374;11.586;2023-08-21T07:24:57;10.50;;;6.20;;
47251;SDS011;32991;51.374;11.586;2023-08-21T07:27:23;14.65;;;5.95;;
47251;SDS011;32991;51.374;11.586;2023-08-21T07:29:50;7.60;;;4.60;;
47251;SDS011;32991;51.374;11.586;2023-08-21T07:32:16;7.88;;;4.15;;
47251;SDS011;32991;51.374;11.586;2023-08-21T07:34:43;9.27;;;4.00;;
47251;SDS011;32991;51.374;11.586;2023-08-21T07:37:10;7.95;;;3.55;;
47251;SDS011;32991;51.374;11.586;2023-08-21T07:39:36;7.75;;;3.45;;
47251;SDS011;32991;51.374;11.586;2023-08-21T07:42:03;10.27;;;3.30;;
47251;SDS011;32991;51.374;11.586;2023-08-21T07:44:30;6.72;;;3.38;;
47251;SDS011;32991;51.374;11.586;2023-08-21T07:46:56;9.18;;;3.30;;
47251;SDS011;32991;51.374;11.586;2023-08-21T07:49:23;4.80;;;2.80;;
47251;SDS011;32991;51.374;11.586;2023-08-21T07:51:50;6.30;;;2.92;;
47251;SDS011;32991;51.374;11.586;2023-08-21T07:54:16;5.00;;;2.88;;
47251;SDS011;32991;51.374;11.586;2023-08-21T07:56:43;8.45;;;2.60;;
47251;SDS011;32991;51.374;11.586;2023-08-21T07:59:10;4.25;;;2.70;;
47251;SDS011;32991;51.374;11.586;2023-08-21T08:01:37;6.72;;;2.97;;
47251;SDS011;32991;51.374;11.586;2023-08-21T08:04:03;6.75;;;3.15;;
47251;SDS011;32991;51.374;11.586;2023-08-21T08:06:31;5.88;;;2.65;;
47251;SDS011;32991;51.374;11.586;2023-08-21T08:08:57;4.50;;;2.67;;
47251;SDS011;32991;51.374;11.586;2023-08-21T08:11:24;8.02;;;2.80;;
47251;SDS011;32991;51.374;11.586;2023-08-21T08:13:51;5.45;;;2.63;;
47251;SDS011;32991;51.374;11.586;2023-08-21T08:16:17;6.30;;;2.70;;
47251;SDS011;32991;51.374;11.586;2023-08-21T08:18:44;11.30;;;2.97;;
47251;SDS011;32991;51.374;11.586;2023-08-21T08:21:10;6.65;;;2.80;;
47251;SDS011;32991;51.374;11.586;2023-08-21T08:23:37;6.63;;;2.50;;
47251;SDS011;32991;51.374;11.586;2023-08-21T08:26:04;3.55;;;2.10;;
47251;SDS011;32991;51.374;11.586;2023-08-21T08:28:31;4.57;;;2.50;;
47251;SDS011;32991;51.374;11.586;2023-08-21T08:30:57;5.32;;;2.20;;
47251;SDS011;32991;51.374;11.586;2023-08-21T08:33:24;5.03;;;2.42;;
47251;SDS011;32991;51.374;11.586;2023-08-21T08:35:51;7.30;;;2.72;;
47251;SDS011;32991;51.374;11.586;2023-08-21T08:38:18;5.13;;;2.10;;
47251;SDS011;32991;51.374;11.586;2023-08-21T08:40:47;4.15;;;2.50;;
47251;SDS011;32991;51.374;11.586;2023-08-21T08:43:14;5.85;;;2.60;;
47251;SDS011;32991;51.374;11.586;2023-08-21T08:45:41;5.05;;;2.80;;
47251;SDS011;32991;51.374;11.586;2023-08-21T08:48:09;6.13;;;2.72;;
47251;SDS011;32991;51.374;11.586;2023-08-21T08:50:36;5.72;;;2.67;;
47251;SDS011;32991;51.374;11.586;2023-08-21T08:53:03;5.65;;;2.80;;
47251;SDS011;32991;51.374;11.586;2023-08-21T08:55:42;7.82;;;3.17;;
47251;SDS011;32991;51.374;11.586;2023-08-21T08:58:09;6.43;;;3.17;;
47251;SDS011;32991;51.374;11.586;2023-08-21T09:00:35;5.03;;;2.60;;
47251;SDS011;32991;51.374;11.586;2023-08-21T09:03:02;8.95;;;3.05;;
47251;SDS011;32991;51.374;11.586;2023-08-21T09:05:29;5.97;;;3.20;;
47251;SDS011;32991;51.374;11.586;2023-08-21T09:08:03;5.82;;;2.55;;
47251;SDS011;32991;51.374;11.586;2023-08-21T09:10:39;10.05;;;2.88;;
47251;SDS011;32991;51.374;11.586;2023-08-21T09:13:13;8.45;;;3.28;;
47251;SDS011;32991;51.374;11.586;2023-08-21T09:15:43;5.38;;;2.95;;
47251;SDS011;32991;51.374;11.586;2023-08-21T09:18:11;5.35;;;2.85;;
47251;SDS011;32991;51.374;11.586;2023-08-21T09:20:38;6.47;;;2.85;;
47251;SDS011;32991;51.374;11.586;2023-08-21T09:23:05;7.40;;;3.00;;
47251;SDS011;32991;51.374;11.586;2023-08-21T09:25:35;4.95;;;3.08;;
47251;SDS011;32991;51.374;11.586;2023-08-21T09:28:07;3.90;;;2.40;;
47251;SDS011;32991;51.374;11.586;2023-08-21T09:30:48;3.95;;;2.25;;
47251;SDS011;32991;51.374;11.586;2023-08-21T09:33:18;5.05;;;2.53;;
47251;SDS011;32991;51.374;11.586;2023-08-21T09:35:46;6.32;;;2.20;;
47251;SDS011;32991;51.374;11.586;2023-08-21T09:38:13;5.57;;;2.20;;
47251;SDS011;32991;51.374;11.586;2023-08-21T09:40:43;4.65;;;2.28;;
47251;SDS011;32991;51.374;11.586;2023-08-21T09:43:11;4.15;;;2.28;;
47251;SDS011;32991;51.374;11.586;2023-08-21T09:45:38;5.97;;;2.15;;
47251;SDS011;32991;51.374;11.586;2023-08-21T09:48:05;3.28;;;2.15;;
47251;SDS011;32991;51.374;11.586;2023-08-21T09:50:33;9.18;;;2.10;;
47251;SDS011;32991;51.374;11.586;2023-08-21T09:53:00;4.05;;;2.20;;
47251;SDS011;32991;51.374;11.586;2023-08-21T09:55:27;2.55;;;1.92;;
47251;SDS011;32991;51.374;11.586;2023-08-21T09:58:01;3.53;;;1.80;;
47251;SDS011;32991;51.374;11.586;2023-08-21T10:00:32;4.00;;;2.28;;
47251;SDS011;32991;51.374;11.586;2023-08-21T10:03:02;3.75;;;2.20;;
47251;SDS011;32991;51.374;11.586;2023-08-21T10:05:34;4.15;;;2.00;;
47251;SDS011;32991;51.374;11.586;2023-08-21T10:08:03;5.32;;;2.15;;
47251;SDS011;32991;51.374;11.586;2023-08-21T10:10:31;4.57;;;2.28;;
47251;SDS011;32991;51.374;11.586;2023-08-21T10:13:02;3.67;;;1.95;;
47251;SDS011;32991;51.374;11.586;2023-08-21T10:15:30;3.63;;;1.83;;
47251;SDS011;32991;51.374;11.586;2023-08-21T10:17:57;5.60;;;2.20;;
47251;SDS011;32991;51.374;11.586;2023-08-21T10:20:25;6.70;;;2.33;;
47251;SDS011;32991;51.374;11.586;2023-08-21T10:22:53;4.03;;;2.17;;
47251;SDS011;32991;51.374;11.586;2023-08-21T10:25:23;5.97;;;2.28;;
47251;SDS011;32991;51.374;11.586;2023-08-21T10:27:57;2.55;;;1.83;;
47251;SDS011;32991;51.374;11.586;2023-08-21T10:30:26;3.15;;;1.80;;
47251;SDS011;32991;51.374;11.586;2023-08-21T10:32:55;4.95;;;1.98;;
47251;SDS011;32991;51.374;11.586;2023-08-21T10:35:24;7.38;;;2.40;;
47251;SDS011;32991;51.374;11.586;2023-08-21T10:38:13;3.28;;;2.15;;
47251;SDS011;32991;51.374;11.586;2023-08-21T10:43:39;2.55;;;1.95;;
47251;SDS011;32991;51.374;11.586;2023-08-21T10:46:07;3.40;;;2.08;;
47251;SDS011;32991;51.374;11.586;2023-08-21T10:48:35;3.05;;;2.13;;
47251;SDS011;32991;51.374;11.586;2023-08-21T10:51:03;5.88;;;2.05;;
47251;SDS011;32991;51.374;11.586;2023-08-21T10:53:33;4.15;;;1.77;;
47251;SDS011;32991;51.374;11.586;2023-08-21T10:56:03;3.65;;;2.10;;
47251;SDS011;32991;51.374;11.586;2023-08-21T10:58:34;7.10;;;2.17;;
47251;SDS011;32991;51.374;11.586;2023-08-21T11:01:05;3.03;;;2.03;;
47251;SDS011;32991;51.374;11.586;2023-08-21T11:03:31;5.25;;;2.03;;
47251;SDS011;32991;51.374;11.586;2023-08-21T11:06:05;2.90;;;1.90;;
47251;SDS011;32991;51.374;11.586;2023-08-21T11:08:33;5.65;;;2.30;;
47251;SDS011;32991;51.374;11.586;2023-08-21T11:11:01;6.55;;;2.70;;
47251;SDS011;32991;51.374;11.586;2023-08-21T11:13:29;2.50;;;2.28;;
47251;SDS011;32991;51.374;11.586;2023-08-21T11:15:59;3.38;;;2.35;;
47251;SDS011;32991;51.374;11.586;2023-08-21T11:18:34;6.20;;;2.30;;
47251;SDS011;32991;51.374;11.586;2023-08-21T11:23:35;4.40;;;2.53;;
47251;SDS011;32991;51.374;11.586;2023-08-21T11:26:03;4.28;;;2.65;;
47251;SDS011;32991;51.374;11.586;2023-08-21T11:28:46;3.53;;;2.67;;
47251;SDS011;32991;51.374;11.586;2023-08-21T11:31:14;3.40;;;2.72;;
47251;SDS011;32991;51.374;11.586;2023-08-21T11:33:48;3.08;;;2.50;;
47251;SDS011;32991;51.374;11.586;2023-08-21T11:36:15;7.95;;;2.75;;
47251;SDS011;32991;51.374;11.586;2023-08-21T11:38:43;2.78;;;2.50;;
47251;SDS011;32991;51.374;11.586;2023-08-21T11:41:24;5.13;;;2.88;;
47251;SDS011;32991;51.374;11.586;2023-08-21T11:43:50;3.42;;;2.72;;
47251;SDS011;32991;51.374;11.586;2023-08-21T11:46:18;4.05;;;2.70;;
47251;SDS011;32991;51.374;11.586;2023-08-21T11:48:44;3.80;;;2.60;;
47251;SDS011;32991;51.374;11.586;2023-08-21T11:51:11;3.15;;;2.30;;
47251;SDS011;32991;51.374;11.586;2023-08-21T11:53:38;5.53;;;2.22;;
47251;SDS011;32991;51.374;11.586;2023-08-21T11:56:10;5.00;;;2.25;;
47251;SDS011;32991;51.374;11.586;2023-08-21T11:58:39;3.55;;;2.20;;
47251;SDS011;32991;51.374;11.586;2023-08-21T12:03:37;5.88;;;2.45;;
47251;SDS011;32991;51.374;11.586;2023-08-21T12:06:09;5.10;;;2.30;;
47251;SDS011;32991;51.374;11.586;2023-08-21T12:08:37;3.25;;;2.17;;
47251;SDS011;32991;51.374;11.586;2023-08-21T12:11:05;4.88;;;2.03;;
47251;SDS011;32991;51.374;11.586;2023-08-21T12:13:32;5.45;;;2.30;;
47251;SDS011;32991;51.374;11.586;2023-08-21T12:16:01;3.97;;;2.17;;
47251;SDS011;32991;51.374;11.586;2023-08-21T12:18:28;2.63;;;2.20;;
47251;SDS011;32991;51.374;11.586;2023-08-21T12:30:41;4.03;;;2.10;;
47251;SDS011;32991;51.374;11.586;2023-08-21T12:33:07;3.50;;;1.95;;
47251;SDS011;32991;51.374;11.586;2023-08-21T12:35:48;2.63;;;1.70;;
47251;SDS011;32991;51.374;11.586;2023-08-21T12:38:15;3.50;;;2.05;;
47251;SDS011;32991;51.374;11.586;2023-08-21T12:40:42;4.43;;;2.15;;
47251;SDS011;32991;51.374;11.586;2023-08-21T12:43:08;2.28;;;1.80;;
47251;SDS011;32991;51.374;11.586;2023-08-21T12:45:35;3.53;;;2.05;;
47251;SDS011;32991;51.374;11.586;2023-08-21T12:48:02;3.58;;;2.40;;
47251;SDS011;32991;51.374;11.586;2023-08-21T12:50:30;3.28;;;1.90;;
47251;SDS011;32991;51.374;11.586;2023-08-21T12:52:57;3.08;;;2.25;;
47251;SDS011;32991;51.374;11.586;2023-08-21T12:55:23;2.35;;;2.00;;
47251;SDS011;32991;51.374;11.586;2023-08-21T12:57:50;4.38;;;2.10;;
47251;SDS011;32991;51.374;11.586;2023-08-21T13:00:16;4.85;;;2.00;;
47251;SDS011;32991;51.374;11.586;2023-08-21T13:02:44;4.22;;;1.92;;
47251;SDS011;32991;51.374;11.586;2023-08-21T13:05:10;3.28;;;1.95;;
47251;SDS011;32991;51.374;11.586;2023-08-21T13:07:37;2.40;;;2.08;;
47251;SDS011;32991;51.374;11.586;2023-08-21T13:10:04;5.85;;;1.90;;
47251;SDS011;32991;51.374;11.586;2023-08-21T13:12:31;3.80;;;1.90;;
47251;SDS011;32991;51.374;11.586;2023-08-21T13:14:57;4.38;;;1.90;;
47251;SDS011;32991;51.374;11.586;2023-08-21T13:17:25;5.32;;;2.00;;
47251;SDS011;32991;51.374;11.586;2023-08-21T13:19:51;1.90;;;1.77;;
47251;SDS011;32991;51.374;11.586;2023-08-21T13:22:18;3.58;;;1.95;;
47251;SDS011;32991;51.374;11.586;2023-08-21T13:24:45;4.10;;;2.08;;
47251;SDS011;32991;51.374;11.586;2023-08-21T13:27:11;2.28;;;2.05;;
47251;SDS011;32991;51.374;11.586;2023-08-21T13:29:38;2.17;;;1.75;;
47251;SDS011;32991;51.374;11.586;2023-08-21T13:32:06;2.75;;;2.00;;
47251;SDS011;32991;51.374;11.586;2023-08-21T13:34:33;3.20;;;2.22;;
47251;SDS011;32991;51.374;11.586;2023-08-21T13:36:59;4.18;;;2.30;;
47251;SDS011;32991;51.374;11.586;2023-08-21T13:39:26;2.40;;;1.95;;
47251;SDS011;32991;51.374;11.586;2023-08-21T13:41:53;5.32;;;2.30;;
47251;SDS011;32991;51.374;11.586;2023-08-21T13:44:19;5.55;;;2.42;;
47251;SDS011;32991;51.374;11.586;2023-08-21T13:46:46;4.18;;;2.20;;
47251;SDS011;32991;51.374;11.586;2023-08-21T13:49:13;3.28;;;2.20;;
47251;SDS011;32991;51.374;11.586;2023-08-21T13:51:39;4.03;;;2.22;;
47251;SDS011;32991;51.374;11.586;2023-08-21T13:54:07;3.15;;;2.53;;
47251;SDS011;32991;51.374;11.586;2023-08-21T13:56:33;4.68;;;2.35;;
47251;SDS011;32991;51.374;11.586;2023-08-21T13:59:00;3.67;;;2.30;;
47251;SDS011;32991;51.374;11.586;2023-08-21T14:01:26;6.82;;;2.70;;
47251;SDS011;32991;51.374;11.586;2023-08-21T14:03:53;5.57;;;2.42;;
47251;SDS011;32991;51.374;11.586;2023-08-21T14:06:20;6.40;;;2.58;;
47251;SDS011;32991;51.374;11.586;2023-08-21T14:08:46;10.15;;;2.58;;
47251;SDS011;32991;51.374;11.586;2023-08-21T14:11:13;5.63;;;2.72;;
47251;SDS011;32991;51.374;11.586;2023-08-21T14:13:40;6.15;;;2.70;;
47251;SDS011;32991;51.374;11.586;2023-08-21T14:16:06;7.70;;;2.40;;
47251;SDS011;32991;51.374;11.586;2023-08-21T14:18:33;4.07;;;2.45;;
47251;SDS011;32991;51.374;11.586;2023-08-21T14:20:59;5.25;;;2.35;;
47251;SDS011;32991;51.374;11.586;2023-08-21T14:23:26;5.78;;;2.72;;
47251;SDS011;32991;51.374;11.586;2023-08-21T14:25:53;4.65;;;2.47;;
47251;SDS011;32991;51.374;11.586;2023-08-21T14:28:19;3.33;;;2.38;;
47251;SDS011;32991;51.374;11.586;2023-08-21T14:30:46;5.20;;;2.40;;
47251;SDS011;32991;51.374;11.586;2023-08-21T14:33:13;4.93;;;2.70;;
47251;SDS011;32991;51.374;11.586;2023-08-21T14:35:40;5.88;;;2.90;;
47251;SDS011;32991;51.374;11.586;2023-08-21T14:38:06;8.25;;;2.50;;
47251;SDS011;32991;51.374;11.586;2023-08-21T14:40:33;5.13;;;2.70;;
47251;SDS011;32991;51.374;11.586;2023-08-21T14:43:00;4.88;;;2.53;;
47251;SDS011;32991;51.374;11.586;2023-08-21T14:45:26;5.88;;;2.38;;
47251;SDS011;32991;51.374;11.586;2023-08-21T14:47:53;4.85;;;2.47;;
47251;SDS011;32991;51.374;11.586;2023-08-21T14:50:20;7.20;;;2.53;;
47251;SDS011;32991;51.374;11.586;2023-08-21T14:52:47;9.20;;;2.42;;
47251;SDS011;32991;51.374;11.586;2023-08-21T14:55:14;6.45;;;2.60;;
47251;SDS011;32991;51.374;11.586;2023-08-21T14:57:41;5.18;;;2.45;;
47251;SDS011;32991;51.374;11.586;2023-08-21T15:00:08;4.93;;;2.70;;
47251;SDS011;32991;51.374;11.586;2023-08-21T15:02:36;6.38;;;2.50;;
47251;SDS011;32991;51.374;11.586;2023-08-21T15:05:04;3.35;;;2.42;;
47251;SDS011;32991;51.374;11.586;2023-08-21T15:07:31;4.38;;;2.28;;
47251;SDS011;32991;51.374;11.586;2023-08-21T15:09:58;6.20;;;2.65;;
47251;SDS011;32991;51.374;11.586;2023-08-21T15:12:24;3.40;;;2.17;;
47251;SDS011;32991;51.374;11.586;2023-08-21T15:14:51;6.32;;;2.60;;
47251;SDS011;32991;51.374;11.586;2023-08-21T15:17:18;2.88;;;2.50;;
47251;SDS011;32991;51.374;11.586;2023-08-21T15:19:47;3.53;;;2.60;;
47251;SDS011;32991;51.374;11.586;2023-08-21T15:22:13;5.75;;;2.60;;
47251;SDS011;32991;51.374;11.586;2023-08-21T15:24:40;5.90;;;2.80;;
47251;SDS011;32991;51.374;11.586;2023-08-21T15:27:07;7.80;;;2.92;;
47251;SDS011;32991;51.374;11.586;2023-08-21T15:29:34;5.20;;;2.72;;
47251;SDS011;32991;51.374;11.586;2023-08-21T15:32:00;5.78;;;2.95;;
47251;SDS011;32991;51.374;11.586;2023-08-21T15:34:27;6.90;;;2.53;;
47251;SDS011;32991;51.374;11.586;2023-08-21T15:36:54;5.80;;;2.65;;
47251;SDS011;32991;51.374;11.586;2023-08-21T15:39:20;4.35;;;2.50;;
47251;SDS011;32991;51.374;11.586;2023-08-21T15:41:47;3.53;;;2.55;;
47251;SDS011;32991;51.374;11.586;2023-08-21T15:44:14;4.07;;;2.78;;
47251;SDS011;32991;51.374;11.586;2023-08-21T15:46:41;3.10;;;2.40;;
47251;SDS011;32991;51.374;11.586;2023-08-21T15:49:10;5.38;;;2.50;;
47251;SDS011;32991;51.374;11.586;2023-08-21T15:51:38;6.97;;;2.85;;
47251;SDS011;32991;51.374;11.586;2023-08-21T15:54:04;3.47;;;2.20;;
47251;SDS011;32991;51.374;11.586;2023-08-21T15:56:31;3.22;;;2.38;;
47251;SDS011;32991;51.374;11.586;2023-08-21T15:58:58;6.25;;;2.40;;
47251;SDS011;32991;51.374;11.586;2023-08-21T16:01:24;4.50;;;2.25;;
47251;SDS011;32991;51.374;11.586;2023-08-21T16:03:51;7.05;;;2.70;;